Time;durP1;ratioP1;P1;durP2;ratioP2;P2;SDS_P1;SDS_P2;PMS_P1;PMS_P2;Temp;Humidity;BMP_temperature;BMP_pressure;BME280_temperature;BME280_humidity;BME280_pressure;Samples;Min_cycle;Max_cycle;Signal;HPM_P1;HPM_P2
2024/04/12 00:01:47;;;;;;;16.73;13.70;;;15.00;99.90;;;;;;5449586;26;20301;-81
2024/04/12 00:04:20;;;;;;;18.67;14.60;;;15.00;99.90;;;;;;5449629;26;20304;-80
2024/04/12 00:06:54;;;;;;;18.07;14.60;;;15.10;99.90;;;;;;5451235;26;20217;-78
2024/04/12 00:09:21;;;;;;;17.13;14.37;;;15.10;99.90;;;;;;5449375;26;20268;-79
2024/04/12 00:11:52;;;;;;;17.10;13.80;;;15.00;99.90;;;;;;5451206;26;20638;-82
2024/04/12 00:14:19;;;;;;;18.27;14.13;;;15.00;99.90;;;;;;5450644;26;20226;-79
2024/04/12 00:16:56;;;;;;;17.97;14.03;;;15.00;99.90;;;;;;5451912;26;20347;-80
2024/04/12 00:19:25;;;;;;;17.87;14.37;;;15.10;99.90;;;;;;5453089;26;20244;-80
2024/04/12 00:21:59;;;;;;;17.50;13.53;;;15.10;99.90;;;;;;5455042;26;20225;-81
2024/04/12 00:24:26;;;;;;;18.03;13.73;;;15.20;99.90;;;;;;5455183;26;20740;-81
2024/04/12 00:26:53;;;;;;;17.07;13.50;;;15.30;99.90;;;;;;5453316;26;20225;-79
2024/04/12 00:29:30;;;;;;;21.33;13.33;;;15.20;99.90;;;;;;5454128;26;20218;-81
2024/04/12 00:32:03;;;;;;;14.80;13.23;;;15.20;99.90;;;;;;5453018;26;20217;-79
2024/04/12 00:34:37;;;;;;;16.30;13.20;;;15.10;99.90;;;;;;5452736;26;20247;-80
2024/04/12 00:37:07;;;;;;;15.43;13.73;;;15.20;99.90;;;;;;5454403;26;20256;-79
2024/04/12 00:39:38;;;;;;;20.23;13.40;;;15.20;99.90;;;;;;5454236;26;20217;-80
2024/04/12 00:42:08;;;;;;;16.83;13.17;;;15.40;99.90;;;;;;5454710;26;20215;-80
2024/04/12 00:44:41;;;;;;;15.57;12.97;;;15.40;99.90;;;;;;5454560;26;20213;-84
2024/04/12 00:47:20;;;;;;;14.83;12.77;;;15.40;99.90;;;;;;5452731;26;20282;-80
2024/04/12 00:49:49;;;;;;;18.40;13.50;;;15.50;99.90;;;;;;5454264;26;20387;-79
2024/04/12 00:52:22;;;;;;;15.33;12.20;;;15.40;99.90;;;;;;5452379;26;20227;-79
2024/04/12 00:55:01;;;;;;;15.47;13.17;;;15.40;99.90;;;;;;5451846;26;20260;-79
2024/04/12 00:57:27;;;;;;;15.67;12.93;;;15.40;99.90;;;;;;5451776;26;20240;-79
2024/04/12 00:59:55;;;;;;;13.60;11.53;;;15.40;99.90;;;;;;5452316;26;20282;-81
2024/04/12 01:02:21;;;;;;;15.70;12.00;;;15.50;99.90;;;;;;5452546;26;20219;-81
2024/04/12 01:04:49;;;;;;;14.90;11.87;;;15.40;99.90;;;;;;5454078;26;20260;-80
2024/04/12 01:07:18;;;;;;;14.13;11.37;;;15.30;99.90;;;;;;5452337;26;20260;-80
2024/04/12 01:09:44;;;;;;;14.70;11.70;;;15.30;99.90;;;;;;5454354;26;20670;-80
2024/04/12 01:12:17;;;;;;;13.43;11.27;;;15.40;99.90;;;;;;5454063;26;20266;-80
2024/04/12 01:14:44;;;;;;;13.73;10.77;;;15.50;99.90;;;;;;5453789;26;20294;-79
2024/04/12 01:17:10;;;;;;;13.40;10.67;;;15.40;99.90;;;;;;5452033;26;20270;-80
2024/04/12 01:19:38;;;;;;;11.70;10.30;;;15.20;99.90;;;;;;5452119;26;20261;-81
2024/04/12 01:22:05;;;;;;;12.23;11.00;;;15.20;99.90;;;;;;5454104;26;20225;-79
2024/04/12 01:24:33;;;;;;;14.47;11.37;;;15.20;99.90;;;;;;5453463;26;20256;-79
2024/04/12 01:27:01;;;;;;;13.13;10.90;;;15.30;99.90;;;;;;5451009;26;20239;-78
2024/04/12 01:29:27;;;;;;;13.43;10.20;;;15.20;99.90;;;;;;5453596;26;20237;-78
2024/04/12 01:31:53;;;;;;;12.40;10.33;;;15.20;99.90;;;;;;5453679;26;20541;-79
2024/04/12 01:34:20;;;;;;;15.43;10.37;;;15.20;99.90;;;;;;5453691;26;20221;-79
2024/04/12 01:36:45;;;;;;;13.30;10.60;;;15.20;99.90;;;;;;5451733;26;20379;-80
2024/04/12 01:39:11;;;;;;;13.53;10.80;;;15.30;99.90;;;;;;5453754;26;20272;-80
2024/04/12 01:41:38;;;;;;;12.03;9.77;;;15.30;99.90;;;;;;5451505;26;20264;-79
2024/04/12 01:44:06;;;;;;;10.87;9.67;;;15.30;99.90;;;;;;5453546;26;20253;-79
2024/04/12 01:46:39;;;;;;;13.73;10.43;;;15.20;99.90;;;;;;5453721;26;20709;-79
2024/04/12 01:49:09;;;;;;;13.90;11.10;;;15.20;99.90;;;;;;5453585;26;20251;-79
2024/04/12 01:51:37;;;;;;;14.43;10.37;;;15.40;99.90;;;;;;5451970;26;20271;-79
2024/04/12 01:54:17;;;;;;;13.77;10.40;;;15.40;99.90;;;;;;5453336;26;20272;-79
2024/04/12 01:56:47;;;;;;;14.27;10.67;;;15.40;99.90;;;;;;5453254;26;20686;-80
2024/04/12 01:59:20;;;;;;;15.63;11.07;;;15.30;99.90;;;;;;5451555;26;20558;-81
2024/04/12 02:01:48;;;;;;;14.03;9.93;;;15.40;99.90;;;;;;5451899;26;20244;-80
2024/04/12 02:04:18;;;;;;;13.43;10.40;;;15.30;99.90;;;;;;5451490;26;20634;-80
2024/04/12 02:06:51;;;;;;;13.43;10.10;;;15.40;99.90;;;;;;5453157;26;20326;-79
2024/04/12 02:09:19;;;;;;;12.33;10.07;;;15.40;99.90;;;;;;5453315;26;20217;-79
2024/04/12 02:11:46;;;;;;;13.43;9.80;;;15.40;99.90;;;;;;5453538;26;20256;-79
2024/04/12 02:14:12;;;;;;;13.50;9.80;;;15.40;99.90;;;;;;5451738;26;20238;-79
2024/04/12 02:16:39;;;;;;;12.43;9.87;;;15.30;99.90;;;;;;5451211;26;20603;-80
2024/04/12 02:19:12;;;;;;;13.13;9.63;;;15.30;99.90;;;;;;5453490;26;20289;-80
2024/04/12 02:21:40;;;;;;;13.73;10.37;;;15.30;99.90;;;;;;5450969;26;20647;-81
2024/04/12 02:24:08;;;;;;;14.43;9.93;;;15.30;99.90;;;;;;5452878;26;20252;-79
2024/04/12 02:26:35;;;;;;;14.33;10.57;;;15.30;99.90;;;;;;5451092;26;20260;-80
2024/04/12 02:29:04;;;;;;;12.90;10.23;;;15.40;99.90;;;;;;5453142;26;20215;-80
2024/04/12 02:31:35;;;;;;;14.77;11.60;;;15.40;99.90;;;;;;5451356;26;20383;-79
2024/04/12 02:34:02;;;;;;;14.60;10.90;;;15.40;99.90;;;;;;5453121;26;20213;-79
2024/04/12 02:36:32;;;;;;;18.30;10.47;;;15.40;99.90;;;;;;5452646;26;20217;-80
2024/04/12 02:38:58;;;;;;;18.10;11.77;;;15.30;99.90;;;;;;5450854;26;20284;-79
2024/04/12 02:41:24;;;;;;;20.20;11.90;;;15.30;99.90;;;;;;5451101;26;20301;-79
2024/04/12 02:43:52;;;;;;;14.87;11.13;;;15.30;99.90;;;;;;5451125;26;20284;-79
2024/04/12 02:46:19;;;;;;;18.43;12.53;;;15.30;99.90;;;;;;5452103;26;20233;-79
2024/04/12 02:48:47;;;;;;;16.23;12.20;;;15.30;99.90;;;;;;5452987;26;20221;-78
2024/04/12 02:51:14;;;;;;;16.93;12.40;;;15.30;99.90;;;;;;5450860;26;20739;-79
2024/04/12 02:53:42;;;;;;;19.30;12.20;;;15.50;99.90;;;;;;5452507;26;20658;-79
2024/04/12 02:56:17;;;;;;;18.87;12.83;;;15.40;99.90;;;;;;5453351;26;20221;-78
2024/04/12 02:58:44;;;;;;;16.27;12.53;;;15.40;99.90;;;;;;5450532;26;20696;-79
2024/04/12 03:01:28;;;;;;;17.97;12.33;;;15.40;99.90;;;;;;5450836;26;20217;-84
2024/04/12 03:03:55;;;;;;;19.10;12.70;;;15.30;99.90;;;;;;5452424;26;20213;-78
2024/04/12 03:06:23;;;;;;;18.07;12.83;;;15.30;99.90;;;;;;5450559;26;20628;-79
2024/04/12 03:08:50;;;;;;;20.27;12.83;;;15.20;99.90;;;;;;5451890;26;20213;-79
2024/04/12 03:11:21;;;;;;;17.10;12.87;;;15.20;99.90;;;;;;5450165;26;20233;-79
2024/04/12 03:13:51;;;;;;;18.53;12.80;;;15.20;99.90;;;;;;5450460;26;20573;-79
2024/04/12 03:16:18;;;;;;;18.07;12.83;;;15.20;99.90;;;;;;5451946;26;20307;-79
2024/04/12 03:18:45;;;;;;;19.10;12.50;;;15.30;99.90;;;;;;5450258;26;20221;-79
2024/04/12 03:21:17;;;;;;;17.30;13.60;;;15.20;99.90;;;;;;5450430;26;20229;-79
2024/04/12 03:23:43;;;;;;;18.43;12.77;;;15.20;99.90;;;;;;5450107;26;20260;-80
2024/04/12 03:26:18;;;;;;;17.57;12.63;;;15.20;99.90;;;;;;5450078;26;20272;-79
2024/04/12 03:28:45;;;;;;;18.30;12.37;;;15.10;99.90;;;;;;5450251;26;20259;-80
2024/04/12 03:31:14;;;;;;;18.23;13.27;;;15.00;99.90;;;;;;5449776;26;20570;-79
2024/04/12 03:33:44;;;;;;;20.00;13.30;;;15.10;99.90;;;;;;5450156;26;20322;-81
2024/04/12 03:36:27;;;;;;;16.53;12.90;;;15.10;99.90;;;;;;5451020;26;20264;-78
2024/04/12 03:44:32;;;;;;;18.47;12.77;;;15.00;99.90;;;;;;5451551;26;20263;-80
2024/04/12 03:47:00;;;;;;;17.47;12.10;;;14.90;99.90;;;;;;5451469;26;20289;-78
2024/04/12 03:49:28;;;;;;;18.53;12.97;;;14.90;99.90;;;;;;5455083;26;20247;-79
2024/04/12 03:51:56;;;;;;;17.73;13.50;;;15.00;99.90;;;;;;5469059;26;20223;-78
2024/04/12 03:54:23;;;;;;;18.60;12.53;;;14.90;99.90;;;;;;5457662;26;20697;-80
2024/04/12 03:56:50;;;;;;;18.33;13.50;;;15.00;99.90;;;;;;5457828;26;20266;-78
2024/04/12 03:59:29;;;;;;;17.80;12.73;;;14.90;99.90;;;;;;5458561;26;20260;-77
2024/04/12 04:01:55;;;;;;;18.67;12.77;;;14.90;99.90;;;;;;5458080;26;20217;-76
2024/04/12 04:04:25;;;;;;;18.47;12.03;;;14.90;99.90;;;;;;5458706;26;20682;-77
2024/04/12 04:06:55;;;;;;;16.53;11.87;;;14.90;99.90;;;;;;5456187;26;20252;-79
2024/04/12 04:09:26;;;;;;;15.27;12.53;;;15.00;99.90;;;;;;5455491;26;20297;-83
2024/04/12 04:11:55;;;;;;;20.10;12.37;;;14.90;99.90;;;;;;5456447;26;20277;-78
2024/04/12 04:14:25;;;;;;;18.57;12.57;;;14.90;99.90;;;;;;5455682;26;20227;-80
2024/04/12 04:16:53;;;;;;;14.87;11.53;;;14.90;99.90;;;;;;5454804;26;20239;-79
2024/04/12 04:19:30;;;;;;;14.83;11.87;;;14.90;99.90;;;;;;5454563;26;20307;-80
2024/04/12 04:21:58;;;;;;;16.47;12.00;;;15.00;99.90;;;;;;5454221;26;20322;-80
2024/04/12 04:24:24;;;;;;;16.87;11.63;;;15.00;99.90;;;;;;5452561;26;20283;-79
2024/04/12 04:26:52;;;;;;;18.80;12.80;;;15.10;99.90;;;;;;5452636;26;20220;-80
2024/04/12 04:29:18;;;;;;;18.30;11.90;;;15.00;99.90;;;;;;5452745;26;20226;-80
2024/04/12 04:31:49;;;;;;;16.07;12.40;;;15.00;99.90;;;;;;5452875;26;20224;-81
2024/04/12 04:34:17;;;;;;;16.63;11.47;;;15.00;99.90;;;;;;5452226;26;20221;-80
2024/04/12 04:36:49;;;;;;;17.83;11.13;;;15.00;99.90;;;;;;5454426;26;20378;-79
2024/04/12 04:39:16;;;;;;;20.67;11.30;;;15.10;99.90;;;;;;5454475;26;20794;-80
2024/04/12 04:41:52;;;;;;;17.10;11.90;;;15.10;99.90;;;;;;5454474;26;20747;-80
2024/04/12 04:44:18;;;;;;;16.33;11.20;;;15.10;99.90;;;;;;5454485;26;20228;-80
2024/04/12 04:46:44;;;;;;;13.97;11.17;;;15.00;99.90;;;;;;5452323;26;20256;-79
2024/04/12 04:49:12;;;;;;;16.07;10.43;;;15.00;99.90;;;;;;5451481;26;20221;-80
2024/04/12 04:51:39;;;;;;;15.90;11.23;;;15.00;99.90;;;;;;5454203;26;20218;-79
2024/04/12 04:54:05;;;;;;;17.90;11.13;;;15.00;99.90;;;;;;5452460;26;20225;-80
2024/04/12 04:56:34;;;;;;;14.83;11.20;;;15.10;99.90;;;;;;5452407;26;20221;-79
2024/04/12 04:58:59;;;;;;;16.77;11.17;;;15.10;99.90;;;;;;5451840;26;20217;-80
2024/04/12 05:01:25;;;;;;;16.07;10.83;;;15.10;99.90;;;;;;5454013;26;20252;-78
2024/04/12 05:03:56;;;;;;;18.10;11.33;;;15.20;99.90;;;;;;5453105;26;20230;-85
2024/04/12 05:06:25;;;;;;;12.77;10.20;;;15.20;99.90;;;;;;5451876;26;20223;-79
2024/04/12 05:09:00;;;;;;;14.87;10.40;;;15.20;99.90;;;;;;5452318;26;20248;-79
2024/04/12 05:11:30;;;;;;;15.57;10.30;;;15.20;99.90;;;;;;5452292;26;20248;-80
2024/04/12 05:14:05;;;;;;;18.60;10.53;;;15.20;99.90;;;;;;5453779;26;20276;-81
2024/04/12 05:16:32;;;;;;;14.60;10.10;;;15.20;99.90;;;;;;5481903;26;20261;-84
2024/04/12 05:19:07;;;;;;;15.57;10.33;;;15.20;99.90;;;;;;5452850;26;20259;-79
2024/04/12 05:21:36;;;;;;;16.07;9.97;;;15.30;99.90;;;;;;5451891;26;20715;-80
2024/04/12 05:24:09;;;;;;;12.80;9.73;;;15.30;99.90;;;;;;5453271;26;20748;-81
2024/04/12 05:26:41;;;;;;;18.10;11.70;;;15.30;99.90;;;;;;5451723;26;20241;-79
2024/04/12 05:29:13;;;;;;;13.67;9.83;;;15.30;99.90;;;;;;5451577;26;20244;-79
2024/04/12 05:31:45;;;;;;;13.10;10.57;;;15.40;99.90;;;;;;5451513;26;20261;-79
2024/04/12 05:34:12;;;;;;;13.40;9.90;;;15.40;99.90;;;;;;5453365;26;20305;-79
2024/04/12 05:36:41;;;;;;;16.67;10.63;;;15.40;99.90;;;;;;5451568;26;20255;-79
2024/04/12 05:39:11;;;;;;;16.80;10.57;;;15.50;99.90;;;;;;5453191;26;20564;-80
2024/04/12 05:41:38;;;;;;;17.17;11.20;;;15.50;99.90;;;;;;5451683;26;20233;-79
2024/04/12 05:44:06;;;;;;;16.00;10.50;;;15.40;99.90;;;;;;5452386;26;20267;-79
2024/04/12 05:46:33;;;;;;;14.50;10.60;;;15.50;99.90;;;;;;5453184;26;20263;-84
2024/04/12 05:49:09;;;;;;;16.03;11.43;;;15.50;99.90;;;;;;5453051;26;20218;-79
2024/04/12 05:51:43;;;;;;;15.17;9.93;;;15.50;99.90;;;;;;5453303;26;20213;-82
2024/04/12 05:54:16;;;;;;;15.13;10.33;;;15.50;99.90;;;;;;5451210;26;20655;-80
2024/04/12 05:56:50;;;;;;;17.07;10.47;;;15.50;99.90;;;;;;5453045;26;20586;-80
2024/04/12 05:59:16;;;;;;;17.63;10.40;;;15.50;99.90;;;;;;5453070;26;20284;-80
2024/04/12 06:01:46;;;;;;;19.67;10.63;;;15.60;99.90;;;;;;5450583;26;20786;-80
2024/04/12 06:04:19;;;;;;;12.67;10.23;;;15.60;99.90;;;;;;5452407;26;20793;-80
2024/04/12 06:06:48;;;;;;;16.37;10.10;;;15.60;99.90;;;;;;5450615;26;20248;-78
2024/04/12 06:09:21;;;;;;;17.73;10.57;;;15.70;99.90;;;;;;5452527;26;20806;-79
2024/04/12 06:11:54;;;;;;;14.40;10.60;;;15.70;99.90;;;;;;5451279;26;20254;-78
2024/04/12 06:14:21;;;;;;;13.47;9.00;;;15.70;99.90;;;;;;5450726;26;20343;-80
2024/04/12 06:16:55;;;;;;;15.83;9.20;;;15.70;99.90;;;;;;5452282;26;20238;-79
2024/04/12 06:19:21;;;;;;;13.27;9.40;;;15.70;99.90;;;;;;5451223;26;20230;-80
2024/04/12 06:21:48;;;;;;;16.90;10.37;;;15.80;99.90;;;;;;5452288;26;20547;-79
2024/04/12 06:24:25;;;;;;;13.97;9.57;;;15.90;99.90;;;;;;5450650;26;20679;-81
2024/04/12 06:26:54;;;;;;;16.63;9.50;;;15.90;99.90;;;;;;5451152;26;20253;-81
2024/04/12 06:29:22;;;;;;;15.67;9.07;;;16.00;99.90;;;;;;5451340;26;20350;-79
2024/04/12 06:31:53;;;;;;;13.10;9.00;;;16.10;99.90;;;;;;5452085;26;20732;-78
2024/04/12 06:34:20;;;;;;;11.77;8.07;;;16.10;99.90;;;;;;5452793;26;20257;-79
2024/04/12 06:36:56;;;;;;;11.73;8.87;;;16.10;99.90;;;;;;5451979;26;20248;-82
2024/04/12 06:39:28;;;;;;;13.00;8.50;;;16.10;99.90;;;;;;5452121;26;20212;-80
2024/04/12 06:41:55;;;;;;;13.27;8.40;;;16.20;99.90;;;;;;5452972;26;20214;-81
2024/04/12 06:44:21;;;;;;;12.40;7.67;;;16.20;99.90;;;;;;5450725;26;20222;-79
2024/04/12 06:46:51;;;;;;;13.10;8.03;;;16.20;99.90;;;;;;5452538;26;20320;-80
2024/04/12 06:49:26;;;;;;;18.00;8.67;;;16.20;99.90;;;;;;5451366;26;20226;-80
2024/04/12 06:54:42;;;;;;;15.40;8.80;;;16.20;99.90;;;;;;5452177;26;20656;-80
2024/04/12 06:57:09;;;;;;;14.70;8.57;;;16.20;99.90;;;;;;5450409;26;20221;-79
2024/04/12 06:59:35;;;;;;;15.23;8.40;;;16.20;99.90;;;;;;5449727;26;20741;-79
2024/04/12 07:02:24;;;;;;;12.73;7.90;;;16.30;99.90;;;;;;5452349;26;20248;-81
2024/04/12 07:04:53;;;;;;;15.30;7.80;;;16.30;99.90;;;;;;5450313;26;20555;-79
2024/04/12 07:07:23;;;;;;;14.70;7.57;;;16.40;99.90;;;;;;5451863;26;20214;-79
2024/04/12 07:09:50;;;;;;;15.20;8.07;;;16.40;99.90;;;;;;5450068;26;20545;-79
2024/04/12 07:12:19;;;;;;;15.43;7.70;;;16.40;99.90;;;;;;5451770;26;20274;-80
2024/04/12 07:14:46;;;;;;;11.40;7.57;;;16.50;99.90;;;;;;5449903;26;20248;-81
2024/04/12 07:17:23;;;;;;;11.17;7.60;;;16.50;99.90;;;;;;5450131;26;20240;-80
2024/04/12 07:19:49;;;;;;;15.87;7.87;;;16.60;99.90;;;;;;5451641;26;20765;-80
2024/04/12 07:22:26;;;;;;;14.17;7.50;;;16.60;99.90;;;;;;5451773;26;20217;-81
2024/04/12 07:24:52;;;;;;;12.60;7.37;;;16.70;99.90;;;;;;5450681;26;20734;-80
2024/04/12 07:27:22;;;;;;;11.37;7.60;;;16.70;99.90;;;;;;5450054;26;20225;-80
2024/04/12 07:29:49;;;;;;;14.90;8.47;;;16.80;99.90;;;;;;5451662;26;20304;-80
2024/04/12 07:32:16;;;;;;;10.77;7.40;;;16.90;99.90;;;;;;5449894;26;20583;-81
2024/04/12 07:34:48;;;;;;;11.73;8.70;;;16.80;99.90;;;;;;5449470;26;20256;-81
2024/04/12 07:37:36;;;;;;;10.67;7.57;;;16.80;99.90;;;;;;5450846;26;20756;-81
2024/04/12 07:40:23;;;;;;;11.97;8.13;;;16.60;99.90;;;;;;5449451;26;20285;-80
2024/04/12 07:42:52;;;;;;;11.60;7.50;;;16.70;99.90;;;;;;5448978;26;20221;-82
2024/04/12 07:45:20;;;;;;;10.73;7.40;;;16.70;99.90;;;;;;5450745;26;20220;-80
2024/04/12 07:47:52;;;;;;;13.10;7.53;;;16.80;99.90;;;;;;5450850;26;20272;-81
2024/04/12 07:50:28;;;;;;;14.17;7.50;;;16.80;99.90;;;;;;5451093;26;20697;-80
2024/04/12 07:53:10;;;;;;;12.30;7.70;;;16.90;99.90;;;;;;5448756;26;20525;-81
2024/04/12 07:55:37;;;;;;;10.67;7.43;;;16.80;99.90;;;;;;5450823;26;20215;-80
2024/04/12 07:58:08;;;;;;;12.70;6.60;;;16.70;99.90;;;;;;5448061;26;20221;-81
2024/04/12 08:00:43;;;;;;;11.80;6.50;;;16.70;99.90;;;;;;5450250;26;20216;-81
2024/04/12 08:03:14;;;;;;;11.30;7.07;;;16.80;99.90;;;;;;5450775;26;20764;-81
2024/04/12 08:05:59;;;;;;;12.37;6.47;;;16.90;99.90;;;;;;5448131;26;20255;-80
2024/04/12 08:08:43;;;;;;;8.07;6.07;;;17.00;99.90;;;;;;5448656;26;20227;-80
2024/04/12 08:11:32;;;;;;;10.73;6.37;;;17.10;99.90;;;;;;5450655;26;20322;-80
2024/04/12 08:14:05;;;;;;;11.67;6.37;;;17.10;99.90;;;;;;5449699;26;20367;-80
2024/04/12 08:16:36;;;;;;;12.00;6.20;;;17.30;99.90;;;;;;5450003;26;20237;-80
2024/04/12 08:19:13;;;;;;;11.80;6.33;;;17.50;99.90;;;;;;5450450;26;20218;-80
2024/04/12 08:21:43;;;;;;;9.00;5.47;;;17.60;99.90;;;;;;5450354;26;20213;-80
2024/04/12 08:24:10;;;;;;;15.17;6.40;;;17.60;99.90;;;;;;5450147;26;20225;-81
2024/04/12 08:26:37;;;;;;;8.57;5.67;;;17.70;99.90;;;;;;5448327;26;20698;-81
2024/04/12 08:29:06;;;;;;;10.77;5.87;;;17.80;99.90;;;;;;5450095;26;20219;-82
2024/04/12 08:31:35;;;;;;;11.20;5.30;;;18.00;99.90;;;;;;5450133;26;20219;-79
2024/04/12 08:34:03;;;;;;;8.17;5.07;;;18.10;99.90;;;;;;5448159;26;20244;-80
2024/04/12 08:36:32;;;;;;;10.63;5.40;;;18.30;99.90;;;;;;5450343;26;20779;-80
2024/04/12 08:39:25;;;;;;;11.47;4.73;;;18.40;99.90;;;;;;5453267;26;20217;-80
2024/04/12 08:42:01;;;;;;;9.57;4.50;;;18.60;99.90;;;;;;5453298;26;20269;-80
2024/04/12 08:44:30;;;;;;;9.87;4.27;;;18.70;99.90;;;;;;5453867;26;20220;-81
2024/04/12 08:47:16;;;;;;;7.43;4.00;;;18.80;99.90;;;;;;5453587;26;20262;-79
2024/04/12 08:50:06;;;;;;;7.60;3.67;;;18.90;99.90;;;;;;5453537;26;20313;-80
2024/04/12 08:52:43;;;;;;;9.30;3.60;;;19.20;73.70;;;;;;5453658;26;20221;-80
2024/04/12 08:55:13;;;;;;;6.70;3.53;;;19.20;67.10;;;;;;5451354;26;20245;-80
2024/04/12 08:57:43;;;;;;;9.43;3.60;;;19.30;67.20;;;;;;5453533;26;20228;-80
2024/04/12 09:00:17;;;;;;;7.87;3.37;;;19.30;65.70;;;;;;5451572;26;20250;-79
2024/04/12 09:03:04;;;;;;;6.23;3.40;;;19.40;65.60;;;;;;5453681;26;20689;-79
2024/04/12 09:05:35;;;;;;;6.57;3.03;;;19.50;67.40;;;;;;5453596;26;20377;-80
2024/04/12 09:08:03;;;;;;;7.63;3.53;;;19.80;53.80;;;;;;5453633;26;20277;-81
2024/04/12 09:10:37;;;;;;;8.30;3.57;;;19.60;49.40;;;;;;5453531;26;20223;-79
2024/04/12 09:13:09;;;;;;;6.10;3.50;;;19.50;56.30;;;;;;5453095;26;20685;-80
2024/04/12 09:15:38;;;;;;;6.57;3.40;;;19.50;57.60;;;;;;5453364;26;20739;-78
2024/04/12 09:18:13;;;;;;;5.83;3.77;;;19.60;53.60;;;;;;5452682;26;20237;-80
2024/04/12 09:20:40;;;;;;;9.00;3.57;;;19.70;51.00;;;;;;5451124;26;20223;-81
2024/04/12 09:23:16;;;;;;;7.97;4.13;;;19.80;51.10;;;;;;5451700;26;20229;-81
2024/04/12 09:25:56;;;;;;;7.83;4.10;;;19.70;54.40;;;;;;5453390;26;20328;-81
2024/04/12 09:28:26;;;;;;;8.37;4.43;;;19.90;52.50;;;;;;5453170;26;20319;-80
2024/04/12 09:33:50;;;;;;;8.57;4.43;;;19.90;55.90;;;;;;5451926;26;20266;-79
2024/04/12 09:36:38;;;;;;;7.87;4.87;;;19.80;55.80;;;;;;5452566;26;20285;-80
2024/04/12 09:39:17;;;;;;;6.47;4.27;;;19.60;62.00;;;;;;5452516;26;20662;-80
2024/04/12 09:41:56;;;;;;;7.50;4.23;;;19.70;63.10;;;;;;5452577;26;20250;-80
2024/04/12 09:44:37;;;;;;;10.57;4.40;;;19.80;62.10;;;;;;5452614;26;20229;-80
2024/04/12 10:37:23;;;;;;;9.07;4.30;;;20.10;46.70;;;;;;5451263;26;20285;-80
2024/04/12 10:39:50;;;;;;;7.97;4.10;;;20.20;42.60;;;;;;5449779;26;20224;-80
2024/04/12 10:42:25;;;;;;;8.30;4.60;;;20.40;38.50;;;;;;5450409;26;20229;-80
2024/04/12 10:44:56;;;;;;;7.27;4.07;;;20.40;36.30;;;;;;5450957;26;20267;-81
2024/04/12 10:47:25;;;;;;;7.00;4.20;;;20.50;35.80;;;;;;5451548;26;20221;-80
2024/04/12 10:49:56;;;;;;;8.20;4.50;;;20.60;32.10;;;;;;5450627;26;20244;-81
2024/04/12 10:52:31;;;;;;;8.37;4.50;;;20.70;32.20;;;;;;5451189;26;20273;-80
2024/04/12 10:55:10;;;;;;;7.50;4.30;;;20.70;32.00;;;;;;5451939;26;20218;-80
2024/04/12 10:57:43;;;;;;;7.40;4.30;;;20.90;31.30;;;;;;5451661;26;20216;-80
2024/04/12 11:00:15;;;;;;;12.97;4.90;;;21.00;28.20;;;;;;5449848;26;20222;-79
2024/04/12 11:02:45;;;;;;;6.93;4.60;;;21.00;25.90;;;;;;5449102;26;20222;-80
2024/04/12 11:07:47;;;;;;;6.50;4.70;;;20.90;24.10;;;;;;5450568;26;20290;-81
2024/04/12 11:13:00;;;;;;;7.87;4.30;;;20.70;30.10;;;;;;5450997;26;20701;-80
2024/04/12 11:31:59;;;;;;;8.23;6.13;;;20.60;17.50;;;;;;5450926;26;20261;-82
2024/04/12 11:34:29;;;;;;;7.83;5.03;;;20.80;18.90;;;;;;5451035;26;20628;-80
2024/04/12 11:37:05;;;;;;;7.37;4.47;;;21.00;19.00;;;;;;5450037;26;20264;-81
2024/04/12 11:39:36;;;;;;;6.10;3.43;;;20.90;20.10;;;;;;5451094;26;20213;-81
2024/04/12 11:42:03;;;;;;;6.67;3.67;;;21.00;20.40;;;;;;5451242;26;20217;-81
2024/04/12 11:44:33;;;;;;;8.77;4.97;;;21.10;18.80;;;;;;5449223;26;20226;-80
2024/04/12 11:47:02;;;;;;;8.23;4.13;;;21.00;14.20;;;;;;5448997;26;20268;-80
2024/04/12 11:49:38;;;;;;;9.53;3.90;;;21.00;19.70;;;;;;5448867;26;20796;-81
2024/04/12 11:52:04;;;;;;;8.23;4.77;;;20.90;18.20;;;;;;5451066;26;20292;-81
2024/04/12 11:54:30;;;;;;;8.03;4.00;;;21.10;15.10;;;;;;5451142;26;20788;-81
2024/04/12 11:57:00;;;;;;;6.27;3.70;;;21.10;16.10;;;;;;5450756;26;20231;-81
2024/04/12 11:59:29;;;;;;;7.00;3.80;;;21.30;10.70;;;;;;5450682;26;20215;-85
2024/04/12 12:01:59;;;;;;;8.13;4.03;;;21.50;6.60;;;;;;5450106;26;20228;-80
2024/04/12 12:04:28;;;;;;;7.03;3.80;;;21.50;3.40;;;;;;5449264;26;20233;-82
2024/04/12 12:06:55;;;;;;;6.50;3.60;;;21.50;2.60;;;;;;5451329;26;20269;-81
2024/04/12 12:09:21;;;;;;;8.30;3.33;;;21.30;4.10;;;;;;5449366;26;20359;-80
2024/04/12 12:11:51;;;;;;;7.67;3.63;;;21.60;3.50;;;;;;5451936;26;20401;-80
2024/04/12 12:14:17;;;;;;;9.80;4.37;;;21.90;1.00;;;;;;5452804;26;20280;-79
2024/04/12 12:16:43;;;;;;;8.27;3.70;;;21.80;1.00;;;;;;5454277;26;20355;-79
2024/04/12 12:19:09;;;;;;;6.83;3.60;;;21.80;1.00;;;;;;5451735;26;20235;-80
2024/04/12 12:21:36;;;;;;;6.87;3.93;;;21.80;1.00;;;;;;5453905;26;20228;-80
2024/04/12 12:24:03;;;;;;;6.50;3.27;;;21.70;1.00;;;;;;5453830;26;20309;-80
2024/04/12 12:26:32;;;;;;;8.43;3.77;;;21.50;1.00;;;;;;5455392;26;20763;-80
2024/04/12 12:28:59;;;;;;;7.63;3.90;;;21.50;1.00;;;;;;5454142;26;20334;-80
2024/04/12 12:31:26;;;;;;;7.27;3.70;;;21.70;1.00;;;;;;5454593;26;20216;-80
2024/04/12 12:33:55;;;;;;;7.37;3.60;;;21.90;1.00;;;;;;5453491;26;20293;-80
2024/04/12 12:36:21;;;;;;;7.80;3.87;;;22.00;1.00;;;;;;5451950;26;20219;-80
2024/04/12 12:38:48;;;;;;;7.77;3.90;;;22.20;1.00;;;;;;5453329;26;20658;-80
2024/04/12 12:41:15;;;;;;;6.80;3.60;;;22.30;1.00;;;;;;5453197;26;20836;-80
2024/04/12 12:43:44;;;;;;;8.67;3.60;;;22.30;1.00;;;;;;5452762;26;20215;-81
2024/04/12 12:46:11;;;;;;;7.10;3.67;;;22.10;1.00;;;;;;5453119;26;20268;-83
2024/04/12 12:48:39;;;;;;;6.80;3.93;;;22.10;1.00;;;;;;5452177;26;20217;-81
2024/04/12 12:51:08;;;;;;;6.03;3.67;;;22.10;1.00;;;;;;5452843;26;20216;-81
2024/04/12 12:53:37;;;;;;;6.83;3.77;;;22.10;1.00;;;;;;5451149;26;20668;-80
2024/04/12 12:56:07;;;;;;;12.27;4.40;;;22.10;1.00;;;;;;5453185;26;20228;-80
2024/04/12 12:58:34;;;;;;;7.17;3.83;;;22.00;1.00;;;;;;5471787;26;20237;-80
2024/04/12 13:01:00;;;;;;;7.67;3.70;;;21.80;1.00;;;;;;5454130;26;20672;-82
2024/04/12 13:03:31;;;;;;;4.47;3.10;;;21.80;1.00;;;;;;5452464;26;20556;-80
2024/04/12 13:05:58;;;;;;;6.20;3.70;;;21.90;1.00;;;;;;5454162;26;20692;-81
2024/04/12 13:08:26;;;;;;;7.57;4.00;;;22.10;1.00;;;;;;5453053;26;20267;-81
2024/04/12 13:10:55;;;;;;;7.70;4.00;;;22.30;1.00;;;;;;5452972;26;20283;-81
2024/04/12 13:13:26;;;;;;;4.47;2.80;;;22.40;1.00;;;;;;5452817;26;20288;-81
2024/04/12 13:15:56;;;;;;;7.43;3.13;;;22.50;1.00;;;;;;5451613;26;20643;-81
2024/04/12 13:18:27;;;;;;;8.97;3.40;;;22.30;1.00;;;;;;5452621;26;20324;-81
2024/04/12 13:20:55;;;;;;;8.60;3.53;;;22.20;1.00;;;;;;5452695;26;20676;-80
2024/04/12 13:23:25;;;;;;;6.57;3.20;;;22.20;1.00;;;;;;5450001;26;20682;-79
2024/04/12 13:25:53;;;;;;;6.43;3.20;;;22.20;1.00;;;;;;5453950;26;20219;-78
2024/04/12 13:28:19;;;;;;;6.93;3.73;;;22.30;1.00;;;;;;5451732;26;20247;-80
2024/04/12 13:30:44;;;;;;;6.50;3.67;;;22.20;1.00;;;;;;5451032;26;20279;-81
2024/04/12 13:33:11;;;;;;;7.50;3.80;;;22.20;1.00;;;;;;5452947;26;20569;-80
2024/04/12 13:35:40;;;;;;;7.53;3.90;;;22.00;1.00;;;;;;5454953;26;20357;-79
2024/04/12 13:38:15;;;;;;;7.07;4.00;;;22.00;1.00;;;;;;5469788;26;20227;-79
2024/04/12 13:40:45;;;;;;;5.43;3.87;;;21.90;1.00;;;;;;5473316;26;20215;-80
2024/04/12 13:43:14;;;;;;;6.20;3.87;;;22.00;1.00;;;;;;5461996;26;20268;-82
2024/04/12 13:51:15;;;;;;;6.23;3.87;;;22.30;1.00;;;;;;5453667;26;20317;-80
2024/04/12 13:53:52;;;;;;;8.10;3.83;;;22.40;1.00;;;;;;5452741;26;20648;-80
2024/04/12 13:56:32;;;;;;;6.93;3.50;;;22.50;1.00;;;;;;5454151;26;20273;-81
2024/04/12 13:58:59;;;;;;;6.50;3.77;;;22.50;1.00;;;;;;5454806;26;20345;-81
2024/04/12 14:01:29;;;;;;;5.00;3.10;;;22.50;1.00;;;;;;5453780;26;20254;-81
2024/04/12 14:04:04;;;;;;;8.13;3.60;;;22.40;1.00;;;;;;5454235;26;20215;-80
2024/04/12 14:06:34;;;;;;;8.10;3.70;;;22.60;1.00;;;;;;5453047;26;20254;-80
2024/04/12 14:09:12;;;;;;;6.23;3.27;;;22.60;1.00;;;;;;5455006;26;20262;-80
2024/04/12 14:11:42;;;;;;;7.07;4.00;;;22.60;1.00;;;;;;5456627;26;20213;-80
2024/04/12 14:14:08;;;;;;;6.17;3.63;;;22.60;1.00;;;;;;5455531;26;20241;-80
2024/04/12 14:16:41;;;;;;;9.83;3.80;;;22.70;1.00;;;;;;5452766;26;20339;-80
2024/04/12 14:19:28;;;;;;;7.30;3.23;;;22.70;1.00;;;;;;5452590;26;20214;-80
2024/04/12 14:21:55;;;;;;;7.27;3.17;;;22.80;1.00;;;;;;5451988;26;20296;-80
2024/04/12 14:27:06;;;;;;;8.33;3.17;;;22.70;1.00;;;;;;5452735;26;20266;-81